Atlantic Horizon — C6XI2 — position and weather

sailwx.info

Track history (hours):
 
Tides and Currents Weather Stations Pressure Air Temp Water Temp Dewpoint Dewpoint Depression Visibility Wind Speed Wind Dir Waves Ship Positions

Atlantic Horizon

Last reported at 2017-Jul-22 22:30 UTC. Time now 2017-Jul-22 22:37 UTC.
Position N 36°34' E 013°31'.

Length 224 m; draft 11.4 m.

Type: Cargo ship. MMSI: 311010300.

Date/timePositionNaut miles runAvg speedWind from/ knotsBaromVisibWave heightAir tempDewpointWater temp
2017-Jul-22 22:30N 36°34' E 013°31'612.6
2017-Jul-22 22:00N 36°36' E 013°24'612.5
2017-Jul-22 21:30N 36°39' E 013°17'612.5
2017-Jul-22 21:00N 36°41' E 013°09'612.3
2017-Jul-22 20:30N 36°44' E 013°02'612.4
2017-Jul-22 20:00N 36°46' E 012°55'612.3
2017-Jul-22 19:30N 36°48' E 012°48'612.3
2017-Jul-22 19:00N 36°50' E 012°41'612.4
2017-Jul-22 18:30N 36°53' E 012°33'612.5
2017-Jul-22 18:00N 36°55' E 012°26'612.7
2017-Jul-22 17:30N 36°57' E 012°19'612.4
2017-Jul-22 17:00N 36°60' E 012°12'612.2
2017-Jul-22 16:30N 37°02' E 012°04'612.5
2017-Jul-22 16:00N 37°04' E 011°57'612.6
2017-Jul-22 15:30N 37°07' E 011°50'612.8
2017-Jul-22 15:00N 37°09' E 011°43'1312.9
2017-Jul-22 14:00N 37°15' E 011°28'612.9
2017-Jul-22 13:30N 37°18' E 011°21'612.9
2017-Jul-22 13:00N 37°21' E 011°14'612.7
2017-Jul-22 12:30N 37°23' E 011°06'612.9
2017-Jul-22 12:00N 37°25' E 010°59'612.9
2017-Jul-22 11:30N 37°27' E 010°51'713.2
2017-Jul-22 11:00N 37°28' E 010°43'1213.0
2017-Jul-22 10:02N 37°31' E 010°27'112.9
2017-Jul-22 09:57N 37°31' E 010°26'613.0
2017-Jul-22 09:29N 37°33' E 010°18'613.2
2017-Jul-22 09:00N 37°34' E 010°10'1513.2
2017-Jul-22 07:54N 37°34' E 009°52'2812.9
2017-Jul-22 05:42N 37°36' E 009°17'313.1
2017-Jul-22 05:30N 37°36' E 009°13'612.9
2017-Jul-22 05:00N 37°36' E 009°05'713.0
2017-Jul-22 04:27N 37°37' E 008°56'612.8
2017-Jul-22 04:00N 37°36' E 008°49'612.8
2017-Jul-22 03:30N 37°35' E 008°41'712.8
2017-Jul-22 02:59N 37°35' E 008°33'1112.8
2017-Jul-22 02:06N 37°33' E 008°19'112.9
2017-Jul-22 02:00N 37°33' E 008°17'712.9
2017-Jul-22 01:28N 37°32' E 008°08'35613.2
2017-Jul-20 22:32N 36°42' E 000°47'013.7
2017-Jul-20 22:30N 36°42' E 000°46'1513.6
2017-Jul-20 21:25N 36°40' E 000°28'339 6.8
2017-Jul-18 19:33N 35°48' W 006°27'212.9
2017-Jul-18 19:21N 35°47' W 006°30'2012.6
2017-Jul-18 17:44N 35°36' W 006°52'512.7
2017-Jul-18 17:22N 35°33' W 006°57'1512.9
2017-Jul-18 16:13N 35°26' W 007°12'312.9
2017-Jul-18 15:59N 35°25' W 007°15'613.2
2017-Jul-18 15:30N 35°21' W 007°22'7512.7
2017-Jul-18 09:35N 34°42' W 008°40'612.6
2017-Jul-18 09:07N 34°39' W 008°46'112.6
2017-Jul-18 09:00N 34°38' W 008°47'712.7
2017-Jul-18 08:25N 34°34' W 008°55'512.6
2017-Jul-18 08:00N 34°31' W 009°00'612.5
2017-Jul-18 07:30N 34°28' W 009°07'712.5
2017-Jul-18 06:57N 34°24' W 009°14'612.5
2017-Jul-18 06:30N 34°21' W 009°20'612.3
2017-Jul-18 06:00N 34°18' W 009°26'612.2
2017-Jul-18 05:30N 34°15' W 009°32'612.1
2017-Jul-18 05:00N 34°11' W 009°38'612.1
2017-Jul-18 04:30N 34°08' W 009°44'812.2
2017-Jul-18 03:49N 34°04' W 009°53'412.2
2017-Jul-18 03:30N 34°01' W 009°57'612.2
2017-Jul-18 02:59N 33°58' W 010°03'712.2
2017-Jul-18 02:27N 33°54' W 010°10'612.2
2017-Jul-18 01:57N 33°51' W 010°16'612.1
2017-Jul-18 01:27N 33°48' W 010°22'512.2
2017-Jul-18 01:00N 33°45' W 010°28'612.4
2017-Jul-18 00:30N 33°41' W 010°34'712.2
2017-Jul-17 23:57N 33°38' W 010°40'612.2
2017-Jul-17 23:30N 33°35' W 010°46'612.1
2017-Jul-17 23:01N 33°31' W 010°52'612.3
2017-Jul-17 22:30N 33°28' W 010°58'612.4
2017-Jul-17 22:00N 33°25' W 011°04'612.6
2017-Jul-17 21:30N 33°21' W 011°11'612.5
2017-Jul-17 21:00N 33°18' W 011°17'612.6
2017-Jul-17 20:31N 33°14' W 011°23'612.4
2017-Jul-17 20:00N 33°11' W 011°29'612.4
2017-Jul-17 19:31N 33°07' W 011°35'612.4
2017-Jul-17 19:01N 33°04' W 011°42'612.2
2017-Jul-17 18:30N 33°00' W 011°48'612.1
2017-Jul-17 17:59N 32°57' W 011°54'712.2
2017-Jul-17 17:25N 32°53' W 012°01'512.0
2017-Jul-17 17:00N 32°50' W 012°06'611.9
2017-Jul-17 16:30N 32°47' W 012°11'711.9
2017-Jul-17 15:56N 32°43' W 012°18'511.9
2017-Jul-17 15:30N 32°40' W 012°23'611.9
2017-Jul-17 15:00N 32°37' W 012°29'611.3
2017-Jul-17 14:30N 32°34' W 012°35'611.8
2017-Jul-17 14:00N 32°31' W 012°40'611.2
2017-Jul-17 13:30N 32°27' W 012°46'611.5
2017-Jul-17 12:59N 32°24' W 012°52'511.1
2017-Jul-17 12:31N 32°21' W 012°57'611.3
2017-Jul-17 12:01N 32°18' W 013°02'611.4
2017-Jul-17 11:30N 32°15' W 013°08'611.6
2017-Jul-17 11:00N 32°11' W 013°14'611.5
2017-Jul-17 10:31N 32°08' W 013°19'611.5
2017-Jul-17 10:00N 32°05' W 013°25'611.6
2017-Jul-17 09:31N 32°01' W 013°30'611.7
2017-Jul-17 09:01N 31°58' W 013°36'611.8
2017-Jul-17 08:31N 31°55' W 013°42'611.8
2017-Jul-17 08:00N 31°51' W 013°47'612.0
2017-Jul-17 07:30N 31°48' W 013°53'612.1
2017-Jul-17 07:00N 31°44' W 013°59'612.1
2017-Jul-17 06:30N 31°41' W 014°05'612.1
2017-Jul-17 06:01N 31°37' W 014°11'612.2
2017-Jul-17 05:30N 31°34' W 014°17'612.1
2017-Jul-17 05:00N 31°30' W 014°22'612.2
2017-Jul-17 04:31N 31°27' W 014°28'612.1
2017-Jul-17 04:01N 31°23' W 014°34'612.2
2017-Jul-17 03:30N 31°20' W 014°40'612.2
2017-Jul-17 03:00N 31°16' W 014°46'612.2
2017-Jul-17 02:30N 31°13' W 014°51'612.1
2017-Jul-17 02:00N 31°09' W 014°57'612.1
2017-Jul-17 01:30N 31°06' W 015°03'611.9
2017-Jul-17 01:01N 31°02' W 015°09'611.8
2017-Jul-17 00:30N 30°59' W 015°14'612.1
2017-Jul-17 00:00N 30°55' W 015°20'612.0
2017-Jul-16 23:31N 30°52' W 015°25'611.7
2017-Jul-16 23:01N 30°49' W 015°31'612.1
2017-Jul-16 22:30N 30°45' W 015°37'611.2
2017-Jul-16 22:00N 30°42' W 015°42'611.6
2017-Jul-16 21:31N 30°38' W 015°48'611.6
2017-Jul-16 21:01N 30°35' W 015°53'611.7
2017-Jul-16 20:30N 30°31' W 015°58'611.7
2017-Jul-16 19:58N 30°28' W 016°04'611.8
2017-Jul-16 19:30N 30°24' W 016°09'611.7
2017-Jul-16 19:00N 30°21' W 016°15'611.8
2017-Jul-16 18:30N 30°18' W 016°21'611.9
2017-Jul-16 18:00N 30°14' W 016°26'612.1
2017-Jul-16 17:29N 30°10' W 016°32'612.4
2017-Jul-16 16:59N 30°07' W 016°38'611.7
2017-Jul-16 16:29N 30°03' W 016°43'612.2
2017-Jul-16 16:00N 29°60' W 016°49'612.3
2017-Jul-16 15:30N 29°56' W 016°54'912.3
2017-Jul-16 14:48N 29°51' W 017°02'512.3
2017-Jul-16 14:22N 29°48' W 017°07'512.2
2017-Jul-16 14:00N 29°45' W 017°11'612.4
2017-Jul-16 13:30N 29°41' W 017°17'612.7
2017-Jul-16 13:01N 29°38' W 017°23'13412.3
2017-Jul-16 02:05N 28°15' W 019°24'111.9
2017-Jul-16 01:59N 28°15' W 019°25'1511.7
2017-Jul-16 00:43N 28°05' W 019°38'  
Track history (hours):
 
Tides and Currents Weather Stations Pressure Air Temp Water Temp Dewpoint Dewpoint Depression Visibility Wind Speed Wind Dir Waves Ship Positions

Atlantic Horizon

Last reported at 2017-Jul-22 22:30 UTC. Time now 2017-Jul-22 22:37 UTC.
Position N 36°34' E 013°31'.

Length 224 m; draft 11.4 m.

Type: Cargo ship. MMSI: 311010300.

Date/timePositionNaut miles runAvg speedWind from/ knotsBaromVisibWave heightAir tempDewpointWater temp
2017-Jul-22 22:30N 36°34' E 013°31'612.6
2017-Jul-22 22:00N 36°36' E 013°24'612.5
2017-Jul-22 21:30N 36°39' E 013°17'612.5
2017-Jul-22 21:00N 36°41' E 013°09'612.3
2017-Jul-22 20:30N 36°44' E 013°02'612.4
2017-Jul-22 20:00N 36°46' E 012°55'612.3
2017-Jul-22 19:30N 36°48' E 012°48'612.3
2017-Jul-22 19:00N 36°50' E 012°41'612.4
2017-Jul-22 18:30N 36°53' E 012°33'612.5
2017-Jul-22 18:00N 36°55' E 012°26'612.7
2017-Jul-22 17:30N 36°57' E 012°19'612.4
2017-Jul-22 17:00N 36°60' E 012°12'612.2
2017-Jul-22 16:30N 37°02' E 012°04'612.5
2017-Jul-22 16:00N 37°04' E 011°57'612.6
2017-Jul-22 15:30N 37°07' E 011°50'612.8
2017-Jul-22 15:00N 37°09' E 011°43'1312.9
2017-Jul-22 14:00N 37°15' E 011°28'612.9
2017-Jul-22 13:30N 37°18' E 011°21'612.9
2017-Jul-22 13:00N 37°21' E 011°14'612.7
2017-Jul-22 12:30N 37°23' E 011°06'612.9
2017-Jul-22 12:00N 37°25' E 010°59'612.9
2017-Jul-22 11:30N 37°27' E 010°51'713.2
2017-Jul-22 11:00N 37°28' E 010°43'1213.0
2017-Jul-22 10:02N 37°31' E 010°27'112.9
2017-Jul-22 09:57N 37°31' E 010°26'613.0
2017-Jul-22 09:29N 37°33' E 010°18'613.2
2017-Jul-22 09:00N 37°34' E 010°10'1513.2
2017-Jul-22 07:54N 37°34' E 009°52'2812.9
2017-Jul-22 05:42N 37°36' E 009°17'313.1
2017-Jul-22 05:30N 37°36' E 009°13'612.9
2017-Jul-22 05:00N 37°36' E 009°05'713.0
2017-Jul-22 04:27N 37°37' E 008°56'612.8
2017-Jul-22 04:00N 37°36' E 008°49'612.8
2017-Jul-22 03:30N 37°35' E 008°41'712.8
2017-Jul-22 02:59N 37°35' E 008°33'1112.8
2017-Jul-22 02:06N 37°33' E 008°19'112.9
2017-Jul-22 02:00N 37°33' E 008°17'712.9
2017-Jul-22 01:28N 37°32' E 008°08'35613.2
2017-Jul-20 22:32N 36°42' E 000°47'013.7
2017-Jul-20 22:30N 36°42' E 000°46'1513.6
2017-Jul-20 21:25N 36°40' E 000°28'339 6.8
2017-Jul-18 19:33N 35°48' W 006°27'212.9
2017-Jul-18 19:21N 35°47' W 006°30'2012.6
2017-Jul-18 17:44N 35°36' W 006°52'512.7
2017-Jul-18 17:22N 35°33' W 006°57'1512.9
2017-Jul-18 16:13N 35°26' W 007°12'312.9
2017-Jul-18 15:59N 35°25' W 007°15'613.2
2017-Jul-18 15:30N 35°21' W 007°22'7512.7
2017-Jul-18 09:35N 34°42' W 008°40'612.6
2017-Jul-18 09:07N 34°39' W 008°46'112.6
2017-Jul-18 09:00N 34°38' W 008°47'712.7
2017-Jul-18 08:25N 34°34' W 008°55'512.6
2017-Jul-18 08:00N 34°31' W 009°00'612.5
2017-Jul-18 07:30N 34°28' W 009°07'712.5
2017-Jul-18 06:57N 34°24' W 009°14'612.5
2017-Jul-18 06:30N 34°21' W 009°20'612.3
2017-Jul-18 06:00N 34°18' W 009°26'612.2
2017-Jul-18 05:30N 34°15' W 009°32'612.1
2017-Jul-18 05:00N 34°11' W 009°38'612.1
2017-Jul-18 04:30N 34°08' W 009°44'812.2
2017-Jul-18 03:49N 34°04' W 009°53'412.2
2017-Jul-18 03:30N 34°01' W 009°57'612.2
2017-Jul-18 02:59N 33°58' W 010°03'712.2
2017-Jul-18 02:27N 33°54' W 010°10'612.2
2017-Jul-18 01:57N 33°51' W 010°16'612.1
2017-Jul-18 01:27N 33°48' W 010°22'512.2
2017-Jul-18 01:00N 33°45' W 010°28'612.4
2017-Jul-18 00:30N 33°41' W 010°34'712.2
2017-Jul-17 23:57N 33°38' W 010°40'612.2
2017-Jul-17 23:30N 33°35' W 010°46'612.1
2017-Jul-17 23:01N 33°31' W 010°52'612.3
2017-Jul-17 22:30N 33°28' W 010°58'612.4
2017-Jul-17 22:00N 33°25' W 011°04'612.6
2017-Jul-17 21:30N 33°21' W 011°11'612.5
2017-Jul-17 21:00N 33°18' W 011°17'612.6
2017-Jul-17 20:31N 33°14' W 011°23'612.4
2017-Jul-17 20:00N 33°11' W 011°29'612.4
2017-Jul-17 19:31N 33°07' W 011°35'612.4
2017-Jul-17 19:01N 33°04' W 011°42'612.2
2017-Jul-17 18:30N 33°00' W 011°48'612.1
2017-Jul-17 17:59N 32°57' W 011°54'712.2
2017-Jul-17 17:25N 32°53' W 012°01'512.0
2017-Jul-17 17:00N 32°50' W 012°06'611.9
2017-Jul-17 16:30N 32°47' W 012°11'711.9
2017-Jul-17 15:56N 32°43' W 012°18'511.9
2017-Jul-17 15:30N 32°40' W 012°23'611.9
2017-Jul-17 15:00N 32°37' W 012°29'611.3
2017-Jul-17 14:30N 32°34' W 012°35'611.8
2017-Jul-17 14:00N 32°31' W 012°40'611.2
2017-Jul-17 13:30N 32°27' W 012°46'611.5
2017-Jul-17 12:59N 32°24' W 012°52'511.1
2017-Jul-17 12:31N 32°21' W 012°57'611.3
2017-Jul-17 12:01N 32°18' W 013°02'611.4
2017-Jul-17 11:30N 32°15' W 013°08'611.6
2017-Jul-17 11:00N 32°11' W 013°14'611.5
2017-Jul-17 10:31N 32°08' W 013°19'611.5
2017-Jul-17 10:00N 32°05' W 013°25'611.6
2017-Jul-17 09:31N 32°01' W 013°30'611.7
2017-Jul-17 09:01N 31°58' W 013°36'611.8
2017-Jul-17 08:31N 31°55' W 013°42'611.8
2017-Jul-17 08:00N 31°51' W 013°47'612.0
2017-Jul-17 07:30N 31°48' W 013°53'612.1
2017-Jul-17 07:00N 31°44' W 013°59'612.1
2017-Jul-17 06:30N 31°41' W 014°05'612.1
2017-Jul-17 06:01N 31°37' W 014°11'612.2
2017-Jul-17 05:30N 31°34' W 014°17'612.1
2017-Jul-17 05:00N 31°30' W 014°22'612.2
2017-Jul-17 04:31N 31°27' W 014°28'612.1
2017-Jul-17 04:01N 31°23' W 014°34'612.2
2017-Jul-17 03:30N 31°20' W 014°40'612.2
2017-Jul-17 03:00N 31°16' W 014°46'612.2
2017-Jul-17 02:30N 31°13' W 014°51'612.1
2017-Jul-17 02:00N 31°09' W 014°57'612.1
2017-Jul-17 01:30N 31°06' W 015°03'611.9
2017-Jul-17 01:01N 31°02' W 015°09'611.8
2017-Jul-17 00:30N 30°59' W 015°14'612.1
2017-Jul-17 00:00N 30°55' W 015°20'612.0
2017-Jul-16 23:31N 30°52' W 015°25'611.7
2017-Jul-16 23:01N 30°49' W 015°31'612.1
2017-Jul-16 22:30N 30°45' W 015°37'611.2
2017-Jul-16 22:00N 30°42' W 015°42'611.6
2017-Jul-16 21:31N 30°38' W 015°48'611.6
2017-Jul-16 21:01N 30°35' W 015°53'611.7
2017-Jul-16 20:30N 30°31' W 015°58'611.7
2017-Jul-16 19:58N 30°28' W 016°04'611.8
2017-Jul-16 19:30N 30°24' W 016°09'611.7
2017-Jul-16 19:00N 30°21' W 016°15'611.8
2017-Jul-16 18:30N 30°18' W 016°21'611.9
2017-Jul-16 18:00N 30°14' W 016°26'612.1
2017-Jul-16 17:29N 30°10' W 016°32'612.4
2017-Jul-16 16:59N 30°07' W 016°38'611.7
2017-Jul-16 16:29N 30°03' W 016°43'612.2
2017-Jul-16 16:00N 29°60' W 016°49'612.3
2017-Jul-16 15:30N 29°56' W 016°54'912.3
2017-Jul-16 14:48N 29°51' W 017°02'512.3
2017-Jul-16 14:22N 29°48' W 017°07'512.2
2017-Jul-16 14:00N 29°45' W 017°11'612.4
2017-Jul-16 13:30N 29°41' W 017°17'612.7
2017-Jul-16 13:01N 29°38' W 017°23'13412.3
2017-Jul-16 02:05N 28°15' W 019°24'111.9
2017-Jul-16 01:59N 28°15' W 019°25'1511.7
2017-Jul-16 00:43N 28°05' W 019°38'  

Dump ship's entire track history